createdAt,value
2017-07-06T00:00:34.660Z,24.87
2017-07-06T00:01:15.193Z,24.93
2017-07-06T00:01:55.702Z,24.96
2017-07-06T00:02:36.236Z,24.9
2017-07-06T00:03:16.727Z,25
2017-07-06T00:03:57.236Z,24.98
2017-07-06T00:04:37.754Z,24.93
2017-07-06T00:05:18.311Z,24.87
2017-07-06T00:05:58.751Z,24.91
2017-07-06T00:06:39.271Z,24.93
2017-07-06T00:07:19.811Z,24.87
2017-07-06T00:08:00.310Z,24.84
2017-07-06T00:08:40.977Z,24.88
2017-07-06T00:09:21.306Z,24.87
2017-07-06T00:10:01.835Z,24.84
2017-07-06T00:10:42.325Z,24.83
2017-07-06T00:11:22.791Z,24.84
2017-07-06T00:12:03.362Z,24.78
2017-07-06T00:12:43.789Z,24.88
2017-07-06T00:13:24.330Z,24.9
2017-07-06T00:14:04.823Z,24.9
2017-07-06T00:14:45.311Z,24.87
2017-07-06T00:15:25.818Z,24.91
2017-07-06T00:16:06.356Z,24.84
2017-07-06T00:16:46.813Z,24.9
2017-07-06T00:17:27.300Z,24.9
2017-07-06T00:18:07.866Z,24.9
2017-07-06T00:18:48.318Z,24.96
2017-07-06T00:19:28.818Z,24.88
2017-07-06T00:20:09.325Z,24.9
2017-07-06T00:20:49.872Z,24.87
2017-07-06T00:21:30.327Z,24.77
2017-07-06T00:22:10.877Z,24.83
2017-07-06T00:22:51.334Z,24.91
2017-07-06T00:23:31.830Z,24.88
2017-07-06T00:24:12.336Z,24.87
2017-07-06T00:24:52.852Z,24.87
2017-07-06T00:25:33.383Z,24.9
2017-07-06T00:26:13.836Z,24.9
2017-07-06T00:26:54.362Z,24.81
2017-07-06T00:27:34.878Z,24.8
2017-07-06T00:28:15.401Z,24.81
2017-07-06T00:28:56.042Z,24.81
2017-07-06T00:29:36.554Z,24.85
2017-07-06T00:30:17.081Z,24.9
2017-07-06T00:30:57.585Z,24.81
2017-07-06T00:31:38.081Z,24.9
2017-07-06T00:32:18.587Z,24.88
2017-07-06T00:32:59.092Z,24.76
2017-07-06T00:33:39.610Z,24.64
2017-07-06T00:34:20.162Z,24.64
2017-07-06T00:35:00.607Z,24.68
2017-07-06T00:35:41.031Z,24.69
2017-07-06T00:36:21.582Z,24.65
2017-07-06T00:37:02.052Z,24.55
2017-07-06T00:37:42.588Z,24.39
2017-07-06T00:38:23.063Z,24.47
2017-07-06T00:39:03.616Z,24.55
2017-07-06T00:39:44.101Z,24.53
2017-07-06T00:40:24.595Z,24.45
2017-07-06T00:41:05.175Z,24.5
2017-07-06T00:41:45.767Z,24.52
2017-07-06T00:42:26.326Z,24.68
2017-07-06T00:43:06.808Z,24.64
2017-07-06T00:43:47.286Z,24.62
2017-07-06T00:44:27.825Z,24.62
2017-07-06T00:45:08.281Z,24.65
2017-07-06T00:45:48.926Z,24.76
2017-07-06T00:46:29.353Z,24.68
2017-07-06T00:47:10.025Z,24.69
2017-07-06T00:47:50.555Z,24.67
2017-07-06T00:48:31.021Z,24.61
2017-07-06T00:49:11.545Z,24.62
2017-07-06T00:49:52.062Z,24.64
2017-07-06T00:50:32.587Z,24.65
2017-07-06T00:51:13.088Z,24.5
2017-07-06T00:51:53.613Z,24.55
2017-07-06T00:52:34.130Z,24.6
2017-07-06T00:53:14.626Z,24.46
2017-07-06T00:53:55.159Z,24.32
2017-07-06T00:54:35.685Z,24.35
2017-07-06T00:55:16.122Z,24.35
2017-07-06T00:55:56.724Z,24.47
2017-07-06T00:56:37.180Z,24.47
2017-07-06T00:57:17.695Z,24.58
2017-07-06T00:57:58.222Z,24.6
2017-07-06T00:58:38.741Z,24.5
2017-07-06T00:59:19.234Z,24.52
2017-07-06T00:59:59.757Z,24.55
2017-07-06T01:00:40.278Z,24.46
2017-07-06T01:01:20.744Z,24.53
2017-07-06T01:02:01.247Z,24.49
2017-07-06T01:02:41.743Z,24.43
2017-07-06T01:03:22.290Z,24.42
2017-07-06T01:04:02.839Z,24.4
2017-07-06T01:04:43.349Z,24.31
2017-07-06T01:05:23.840Z,24.37
2017-07-06T01:06:04.327Z,24.35
2017-07-06T01:06:44.839Z,24.39
2017-07-06T01:07:25.336Z,24.42
2017-07-06T01:08:05.799Z,24.39
2017-07-06T01:08:46.322Z,24.46
2017-07-06T01:09:26.803Z,24.47
2017-07-06T01:10:07.328Z,24.45
2017-07-06T01:10:47.844Z,24.47
2017-07-06T01:11:28.327Z,24.43
2017-07-06T01:12:08.837Z,24.47
2017-07-06T01:12:49.373Z,24.47
2017-07-06T01:13:29.858Z,24.34
2017-07-06T01:14:10.368Z,24.35
2017-07-06T01:14:50.868Z,24.31
2017-07-06T01:15:31.387Z,24.27
2017-07-06T01:16:11.864Z,24.16
2017-07-06T01:16:52.413Z,24.09
2017-07-06T01:17:32.970Z,24.15
2017-07-06T01:18:13.420Z,24.22
2017-07-06T01:18:53.913Z,24.27
2017-07-06T01:19:34.426Z,24.22
2017-07-06T01:20:14.887Z,24.16
2017-07-06T01:20:55.396Z,24.34
2017-07-06T01:21:35.887Z,24.37
2017-07-06T01:22:16.420Z,24.32
2017-07-06T01:22:56.916Z,24.32
2017-07-06T01:23:37.466Z,24.3
2017-07-06T01:24:17.987Z,24.34
2017-07-06T01:24:58.474Z,24.3
2017-07-06T01:25:38.950Z,24.31
2017-07-06T01:26:19.462Z,24.37
2017-07-06T01:27:00.005Z,24.25
2017-07-06T01:27:40.481Z,24.25
2017-07-06T01:28:21.034Z,24.43
2017-07-06T01:29:01.483Z,24.34
2017-07-06T01:29:41.983Z,24.28
2017-07-06T01:30:22.481Z,24.22
2017-07-06T01:31:03.027Z,24.24
2017-07-06T01:31:43.505Z,24.31
2017-07-06T01:32:23.989Z,24.31
2017-07-06T01:33:04.472Z,24.25
2017-07-06T01:33:44.972Z,24.27
2017-07-06T01:34:25.553Z,24.21
2017-07-06T01:35:05.953Z,24.27
2017-07-06T01:35:46.479Z,24.31
2017-07-06T01:36:26.978Z,24.28
2017-07-06T01:37:07.467Z,24.21
2017-07-06T01:37:48.028Z,24.27
2017-07-06T01:38:28.538Z,24.28
2017-07-06T01:39:08.987Z,24.28
2017-07-06T01:39:49.517Z,24.16
2017-07-06T01:40:29.973Z,24.1
2017-07-06T01:41:10.476Z,24.09
2017-07-06T01:41:50.937Z,24.05
2017-07-06T01:42:31.464Z,23.98
2017-07-06T01:43:11.935Z,24.03
2017-07-06T01:43:52.462Z,23.95
2017-07-06T01:44:33.024Z,23.95
2017-07-06T01:45:13.486Z,24
2017-07-06T01:45:54.951Z,24.05
2017-07-06T01:46:35.541Z,24.03
2017-07-06T01:47:15.943Z,24
2017-07-06T01:47:56.484Z,24
2017-07-06T01:48:36.995Z,23.98
2017-07-06T01:49:17.493Z,23.85
2017-07-06T01:49:57.992Z,23.91
2017-07-06T01:50:38.492Z,23.88
2017-07-06T01:51:18.992Z,23.91
2017-07-06T01:51:59.556Z,23.93
2017-07-06T01:52:40.102Z,23.95
2017-07-06T01:53:20.602Z,24.06
2017-07-06T01:54:01.088Z,23.98
2017-07-06T01:54:41.603Z,24
2017-07-06T01:55:22.135Z,23.93
2017-07-06T01:56:02.616Z,24.02
2017-07-06T01:56:43.132Z,24.03
2017-07-06T01:57:23.617Z,24.05
2017-07-06T01:58:04.135Z,23.94
2017-07-06T01:58:44.695Z,23.88
2017-07-06T01:59:25.174Z,23.8
2017-07-06T02:00:05.647Z,23.9
2017-07-06T02:00:46.184Z,23.84
2017-07-06T02:01:26.679Z,23.94
2017-07-06T02:02:07.222Z,23.95
2017-07-06T02:02:47.728Z,23.94
2017-07-06T02:03:28.250Z,23.97
2017-07-06T02:04:08.779Z,23.95
2017-07-06T02:04:49.282Z,23.9
2017-07-06T02:05:29.811Z,23.93
2017-07-06T02:06:10.246Z,23.94
2017-07-06T02:06:50.721Z,24
2017-07-06T02:07:31.232Z,23.98
2017-07-06T02:08:11.750Z,23.95
2017-07-06T02:08:52.248Z,23.91
2017-07-06T02:09:32.746Z,23.88
2017-07-06T02:10:13.289Z,23.85
2017-07-06T02:10:53.783Z,23.95
2017-07-06T02:11:34.286Z,23.93
2017-07-06T02:12:14.808Z,23.87
2017-07-06T02:12:55.440Z,23.88
2017-07-06T02:13:35.986Z,23.91
2017-07-06T02:14:16.481Z,23.87
2017-07-06T02:14:56.997Z,23.78
2017-07-06T02:15:37.480Z,23.76
2017-07-06T02:16:18.040Z,23.85
2017-07-06T02:16:58.490Z,23.87
2017-07-06T02:17:39.020Z,23.97
2017-07-06T02:18:19.508Z,23.83
2017-07-06T02:19:00.029Z,23.72
2017-07-06T02:19:40.504Z,23.69
2017-07-06T02:20:21.024Z,23.7
2017-07-06T02:21:01.514Z,23.75
2017-07-06T02:21:41.993Z,23.76
2017-07-06T02:22:22.520Z,23.72
2017-07-06T02:23:03.033Z,23.72
2017-07-06T02:23:43.534Z,23.76
2017-07-06T02:24:23.991Z,23.72
2017-07-06T02:25:04.491Z,23.63
2017-07-06T02:25:44.985Z,23.6
2017-07-06T02:26:25.525Z,23.51
2017-07-06T02:27:05.998Z,23.48
2017-07-06T02:27:46.505Z,23.48
2017-07-06T02:28:27.027Z,23.55
2017-07-06T02:29:07.551Z,23.5
2017-07-06T02:29:48.074Z,23.61
2017-07-06T02:30:28.633Z,23.51
2017-07-06T02:31:09.115Z,23.65
2017-07-06T02:31:49.623Z,23.54
2017-07-06T02:32:30.094Z,23.65
2017-07-06T02:33:10.597Z,23.68
2017-07-06T02:33:51.099Z,23.58
2017-07-06T02:34:31.609Z,23.6
2017-07-06T02:35:12.093Z,23.61
2017-07-06T02:35:52.583Z,23.58
2017-07-06T02:36:33.082Z,23.55
2017-07-06T02:37:13.589Z,23.58
2017-07-06T02:37:54.138Z,23.65
2017-07-06T02:38:34.640Z,23.48
2017-07-06T02:39:15.128Z,23.53
2017-07-06T02:39:55.632Z,23.48
2017-07-06T02:40:36.169Z,23.46
2017-07-06T02:41:16.889Z,23.4
2017-07-06T02:41:57.440Z,23.43
2017-07-06T02:42:37.897Z,23.43
2017-07-06T02:43:18.407Z,23.57
2017-07-06T02:43:58.931Z,23.48
2017-07-06T02:44:39.453Z,23.42
2017-07-06T02:45:19.948Z,23.48
2017-07-06T02:46:00.424Z,23.39
2017-07-06T02:46:40.905Z,23.48
2017-07-06T02:47:21.395Z,23.42
2017-07-06T02:48:01.948Z,23.43
2017-07-06T02:48:42.440Z,23.46
2017-07-06T02:49:22.914Z,23.51
2017-07-06T02:50:03.404Z,23.48
2017-07-06T02:50:43.906Z,23.5
2017-07-06T02:51:24.369Z,23.39
2017-07-06T02:52:04.883Z,23.51
2017-07-06T02:52:45.421Z,23.43
2017-07-06T02:53:25.887Z,23.57
2017-07-06T02:54:06.390Z,23.55
2017-07-06T02:54:46.909Z,23.54
2017-07-06T02:55:27.443Z,23.46
2017-07-06T02:56:07.914Z,23.57
2017-07-06T02:56:48.460Z,23.57
2017-07-06T02:57:28.970Z,23.5
2017-07-06T02:58:09.477Z,23.46
2017-07-06T02:58:50.018Z,23.53
2017-07-06T02:59:30.510Z,23.57
2017-07-06T03:00:10.980Z,23.43
2017-07-06T03:00:51.460Z,23.47
2017-07-06T03:01:31.958Z,23.48
2017-07-06T03:02:12.533Z,23.54
2017-07-06T03:02:53.044Z,23.55
2017-07-06T03:03:33.548Z,23.53
2017-07-06T03:04:14.053Z,23.57
2017-07-06T03:04:54.510Z,23.55
2017-07-06T03:05:35.048Z,23.43
2017-07-06T03:06:15.558Z,23.39
2017-07-06T03:06:56.041Z,23.38
2017-07-06T03:07:36.520Z,23.39
2017-07-06T03:08:16.992Z,23.32
2017-07-06T03:08:57.520Z,23.27
2017-07-06T03:09:38.258Z,23.31
2017-07-06T03:10:18.703Z,23.27
2017-07-06T03:10:59.225Z,23.31
2017-07-06T03:11:39.724Z,23.32
2017-07-06T03:12:20.181Z,23.33
2017-07-06T03:13:00.718Z,23.28
2017-07-06T03:13:41.187Z,23.32
2017-07-06T03:14:21.724Z,23.31
2017-07-06T03:15:02.191Z,23.42
2017-07-06T03:15:42.687Z,23.31
2017-07-06T03:16:23.219Z,23.23
2017-07-06T03:17:03.734Z,23.17
2017-07-06T03:17:44.234Z,23.17
2017-07-06T03:18:24.703Z,23.1
2017-07-06T03:19:05.195Z,23.15
2017-07-06T03:19:45.703Z,23.1
2017-07-06T03:20:26.240Z,23.07
2017-07-06T03:21:06.741Z,23.17
2017-07-06T03:21:47.236Z,23.13
2017-07-06T03:22:27.732Z,23.15
2017-07-06T03:23:08.345Z,23.23
2017-07-06T03:23:48.902Z,23.22
2017-07-06T03:24:29.442Z,23.23
2017-07-06T03:25:09.933Z,23.2
2017-07-06T03:25:50.582Z,23.27
2017-07-06T03:26:31.107Z,23.28
2017-07-06T03:27:11.622Z,23.32
2017-07-06T03:27:52.097Z,23.23
2017-07-06T03:28:32.608Z,23.27
2017-07-06T03:29:13.087Z,23.27
2017-07-06T03:29:53.578Z,23.19
2017-07-06T03:30:34.089Z,23.16
2017-07-06T03:31:14.607Z,23.2
2017-07-06T03:31:55.088Z,23.28
2017-07-06T03:32:35.592Z,23.25
2017-07-06T03:33:16.096Z,23.32
2017-07-06T03:33:56.637Z,23.25
2017-07-06T03:34:37.102Z,23.31
2017-07-06T03:35:17.623Z,23.23
2017-07-06T03:35:58.062Z,23.35
2017-07-06T03:36:38.599Z,23.22
2017-07-06T03:37:19.105Z,23.25
2017-07-06T03:37:59.633Z,23.23
2017-07-06T03:38:40.155Z,23.32
2017-07-06T03:39:20.564Z,23.1
2017-07-06T03:40:01.104Z,23.12
2017-07-06T03:40:41.598Z,23.07
2017-07-06T03:41:22.088Z,23.22
2017-07-06T03:42:02.626Z,23.19
2017-07-06T03:42:43.117Z,23.22
2017-07-06T03:43:23.607Z,23.33
2017-07-06T03:44:04.127Z,23.27
2017-07-06T03:44:44.686Z,23.31
2017-07-06T03:45:25.137Z,23.27
2017-07-06T03:46:05.698Z,23.35
2017-07-06T03:46:46.204Z,23.31
2017-07-06T03:47:26.797Z,23.28
2017-07-06T03:48:07.303Z,23.38
2017-07-06T03:48:47.843Z,23.39
2017-07-06T03:49:28.310Z,23.33
2017-07-06T03:50:08.809Z,23.31
2017-07-06T03:50:49.312Z,23.38
2017-07-06T03:51:29.790Z,23.36
2017-07-06T03:52:10.270Z,23.38
2017-07-06T03:52:50.786Z,23.38
2017-07-06T03:53:31.310Z,23.36
2017-07-06T03:54:11.803Z,23.4
2017-07-06T03:54:52.280Z,23.46
2017-07-06T03:55:32.818Z,23.32
2017-07-06T03:56:13.334Z,23.35
2017-07-06T03:56:53.817Z,23.43
2017-07-06T03:57:34.317Z,23.32
2017-07-06T03:58:14.825Z,23.39
2017-07-06T03:58:55.293Z,23.35
2017-07-06T03:59:35.791Z,23.47
2017-07-06T04:00:16.299Z,23.42
2017-07-06T04:00:56.806Z,23.4
2017-07-06T04:01:37.302Z,23.47
2017-07-06T04:02:17.808Z,23.43
2017-07-06T04:02:58.293Z,23.31
2017-07-06T04:03:38.794Z,23.35
2017-07-06T04:04:19.274Z,23.47
2017-07-06T04:04:59.781Z,23.32
2017-07-06T04:05:40.250Z,23.5
2017-07-06T04:06:20.814Z,23.47
2017-07-06T04:07:01.344Z,23.46
2017-07-06T04:07:41.844Z,23.43
2017-07-06T04:08:22.352Z,23.43
2017-07-06T04:09:02.844Z,23.43
2017-07-06T04:09:43.457Z,23.53
2017-07-06T04:10:24.761Z,23.4
2017-07-06T04:11:05.263Z,23.43
2017-07-06T04:11:45.833Z,23.46
2017-07-06T04:12:26.364Z,23.4
2017-07-06T04:13:06.852Z,23.43
2017-07-06T04:13:47.324Z,23.4
2017-07-06T04:14:27.813Z,23.38
2017-07-06T04:15:08.359Z,23.48
2017-07-06T04:15:48.853Z,23.39
2017-07-06T04:16:29.354Z,23.35
2017-07-06T04:17:09.878Z,23.38
2017-07-06T04:17:50.378Z,23.4
2017-07-06T04:18:30.960Z,23.47
2017-07-06T04:19:11.471Z,23.43
2017-07-06T04:19:52.019Z,23.35
2017-07-06T04:20:32.469Z,23.36
2017-07-06T04:21:12.993Z,23.35
2017-07-06T04:21:53.507Z,23.4
2017-07-06T04:22:34.003Z,23.38
2017-07-06T04:23:14.484Z,23.38
2017-07-06T04:23:55.278Z,23.47
2017-07-06T04:24:35.496Z,23.43
2017-07-06T04:25:16.018Z,23.43
2017-07-06T04:25:56.488Z,23.53
2017-07-06T04:26:37.028Z,23.6
2017-07-06T04:27:17.522Z,23.54
2017-07-06T04:27:58.004Z,23.72
2017-07-06T04:28:38.633Z,23.63
2017-07-06T04:29:19.115Z,23.72
2017-07-06T04:29:59.635Z,23.65
2017-07-06T04:30:40.249Z,23.66
2017-07-06T04:31:20.575Z,23.75
2017-07-06T04:32:01.134Z,23.75
2017-07-06T04:32:41.665Z,23.66
2017-07-06T04:33:22.191Z,23.72
2017-07-06T04:34:02.646Z,23.63
2017-07-06T04:34:43.165Z,23.75
2017-07-06T04:35:23.658Z,23.72
2017-07-06T04:36:04.300Z,23.69
2017-07-06T04:36:44.810Z,23.7
2017-07-06T04:37:25.377Z,23.7
2017-07-06T04:38:05.875Z,23.73
2017-07-06T04:38:46.519Z,23.75
2017-07-06T04:39:27.094Z,23.69
2017-07-06T04:40:07.641Z,23.73
2017-07-06T04:40:48.813Z,23.84
2017-07-06T04:41:29.346Z,24.03
2017-07-06T04:42:09.837Z,24.18
2017-07-06T04:42:50.334Z,24.25
2017-07-06T04:43:30.826Z,24.22
2017-07-06T04:44:11.334Z,24.34
2017-07-06T04:44:51.991Z,24.9
2017-07-06T04:45:32.441Z,25.38
2017-07-06T04:46:12.989Z,25.65
2017-07-06T04:46:53.453Z,25.62
2017-07-06T04:47:33.903Z,25.4
2017-07-06T04:48:14.427Z,25.13
2017-07-06T04:48:54.884Z,24.91
2017-07-06T04:49:35.434Z,24.95
2017-07-06T04:50:15.994Z,25.21
2017-07-06T04:50:56.470Z,25.6
2017-07-06T04:51:36.999Z,25.65
2017-07-06T04:52:17.573Z,25.45
2017-07-06T04:52:58.119Z,25.36
2017-07-06T04:53:38.549Z,25.1
2017-07-06T04:54:19.002Z,25.09
2017-07-06T04:54:59.552Z,25.06
2017-07-06T04:55:40.009Z,24.95
2017-07-06T04:56:20.537Z,24.93
2017-07-06T04:57:01.003Z,24.84
2017-07-06T04:57:41.500Z,24.91
2017-07-06T04:58:22.025Z,24.91
2017-07-06T04:59:02.533Z,24.87
2017-07-06T04:59:43.061Z,24.91
2017-07-06T05:00:23.523Z,24.81
2017-07-06T05:01:04.012Z,24.87
2017-07-06T05:01:44.538Z,24.83
2017-07-06T05:02:25.065Z,24.83
2017-07-06T05:03:05.546Z,24.95
2017-07-06T05:03:46.030Z,24.93
2017-07-06T05:04:26.537Z,24.93
2017-07-06T05:05:07.052Z,24.83
2017-07-06T05:05:47.537Z,24.81
2017-07-06T05:06:28.121Z,24.73
2017-07-06T05:07:08.612Z,24.68
2017-07-06T05:07:49.137Z,24.61
2017-07-06T05:08:29.639Z,24.6
2017-07-06T05:09:10.121Z,24.49
2017-07-06T05:09:50.672Z,24.5
2017-07-06T05:10:31.222Z,24.52
2017-07-06T05:11:11.724Z,24.49
2017-07-06T05:11:52.215Z,24.52
2017-07-06T05:12:32.683Z,24.5
2017-07-06T05:13:13.232Z,24.53
2017-07-06T05:13:53.985Z,24.62
2017-07-06T05:14:34.499Z,24.53
2017-07-06T05:15:14.988Z,24.49
2017-07-06T05:15:55.520Z,24.57
2017-07-06T05:16:36.006Z,24.5
2017-07-06T05:17:16.571Z,24.5
2017-07-06T05:17:57.066Z,24.61
2017-07-06T05:18:37.629Z,24.83
2017-07-06T05:19:18.083Z,24.93
2017-07-06T05:19:58.751Z,24.9
2017-07-06T05:20:39.457Z,24.95
2017-07-06T05:21:19.993Z,24.8
2017-07-06T05:22:00.473Z,24.81
2017-07-06T05:22:41.076Z,24.88
2017-07-06T05:23:21.592Z,24.87
2017-07-06T05:24:02.104Z,24.9
2017-07-06T05:24:42.581Z,24.9
2017-07-06T05:25:23.081Z,24.99
2017-07-06T05:26:03.613Z,24.88
2017-07-06T05:26:44.121Z,24.96
2017-07-06T05:27:24.584Z,24.9
2017-07-06T05:28:05.099Z,24.93
2017-07-06T05:28:45.622Z,24.9
2017-07-06T05:29:26.126Z,24.87
2017-07-06T05:30:06.614Z,24.8
2017-07-06T05:30:47.109Z,24.78
2017-07-06T05:31:27.588Z,24.81
2017-07-06T05:32:08.081Z,24.88
2017-07-06T05:32:48.598Z,24.96
2017-07-06T05:33:29.091Z,24.9
2017-07-06T05:34:09.650Z,24.95
2017-07-06T05:34:50.161Z,25.1
2017-07-06T05:35:30.593Z,25.09
2017-07-06T05:36:11.119Z,25.17
2017-07-06T05:36:51.623Z,25.15
2017-07-06T05:37:32.071Z,25.14
2017-07-06T05:38:12.564Z,25.09
2017-07-06T05:38:53.169Z,25.02
2017-07-06T05:39:33.698Z,25
2017-07-06T05:40:14.328Z,24.99
2017-07-06T05:40:55.023Z,25.02
2017-07-06T05:41:35.522Z,25.02
2017-07-06T05:42:16.063Z,24.98
2017-07-06T05:42:56.562Z,24.98
2017-07-06T05:43:37.064Z,24.95
2017-07-06T05:44:17.566Z,24.95
2017-07-06T05:44:58.070Z,24.93
2017-07-06T05:45:38.574Z,24.93
2017-07-06T05:46:19.314Z,24.98
2017-07-06T05:46:59.776Z,24.95
2017-07-06T05:47:40.301Z,24.99
2017-07-06T05:48:20.810Z,24.99
2017-07-06T05:49:01.271Z,25
2017-07-06T05:49:41.754Z,25
2017-07-06T05:50:22.243Z,25
2017-07-06T05:51:02.770Z,25
2017-07-06T05:51:43.316Z,25.1
2017-07-06T05:52:23.840Z,25
2017-07-06T05:53:04.389Z,25.13
2017-07-06T05:53:45.089Z,25.08
2017-07-06T05:54:25.427Z,25.13
2017-07-06T05:55:05.932Z,25.1
2017-07-06T05:55:46.439Z,25.15
2017-07-06T05:56:26.923Z,25.1
2017-07-06T05:57:07.460Z,25.1
2017-07-06T05:57:47.974Z,25.13
2017-07-06T05:58:28.484Z,25.33
2017-07-06T05:59:08.983Z,25.91
2017-07-06T05:59:49.480Z,26.72
2017-07-06T06:00:30.021Z,27.82
2017-07-06T06:01:10.643Z,28.68
2017-07-06T06:01:51.155Z,29.12
2017-07-06T06:02:31.637Z,29.64
2017-07-06T06:03:12.152Z,29.78
2017-07-06T06:03:52.723Z,30.1
2017-07-06T06:04:33.225Z,30.11
2017-07-06T06:05:13.777Z,30.08
2017-07-06T06:05:54.276Z,30.04
2017-07-06T06:06:34.749Z,30.01
2017-07-06T06:07:15.265Z,30.02
2017-07-06T06:07:55.759Z,29.82
2017-07-06T06:08:36.305Z,30
2017-07-06T06:09:16.782Z,30.02
2017-07-06T06:09:57.269Z,30.04
2017-07-06T06:10:37.799Z,29.94
2017-07-06T06:11:18.298Z,29.98
2017-07-06T06:11:58.832Z,30.07
2017-07-06T06:12:39.283Z,30.07
2017-07-06T06:13:19.828Z,30.04
2017-07-06T06:14:00.327Z,30.01
2017-07-06T06:14:40.844Z,30.05
2017-07-06T06:15:21.450Z,30.01
2017-07-06T06:16:01.970Z,30.26
2017-07-06T06:16:42.472Z,30.22
2017-07-06T06:17:22.977Z,30.34
2017-07-06T06:18:03.491Z,30.19
2017-07-06T06:18:44.034Z,30.32
2017-07-06T06:20:32.020Z,30.16
2017-07-06T06:21:12.517Z,30.26
2017-07-06T06:21:53.071Z,30.29
2017-07-06T06:22:33.573Z,30.32
2017-07-06T06:23:14.108Z,30.29
2017-07-06T06:23:54.641Z,30.11
2017-07-06T06:24:35.168Z,30.02
2017-07-06T06:25:15.698Z,30.17
2017-07-06T06:25:56.198Z,30.15
2017-07-06T06:26:36.817Z,30.04
2017-07-06T06:27:17.325Z,29.97
2017-07-06T06:27:57.867Z,30.04
2017-07-06T06:28:38.381Z,29.98
2017-07-06T06:29:19.209Z,30.08
2017-07-06T06:29:59.707Z,30.2
2017-07-06T06:30:40.239Z,30.31
2017-07-06T06:31:20.749Z,30.35
2017-07-06T06:32:01.277Z,30.43
2017-07-06T06:32:41.769Z,30.51
2017-07-06T06:33:22.296Z,30.53
2017-07-06T06:34:02.839Z,30.53
2017-07-06T06:34:43.320Z,30.51
2017-07-06T06:35:23.859Z,30.43
2017-07-06T06:36:04.362Z,30.45
2017-07-06T06:36:44.861Z,30.39
2017-07-06T06:37:25.386Z,30.34
2017-07-06T06:38:05.876Z,30.39
2017-07-06T06:38:46.384Z,30.38
2017-07-06T06:39:26.890Z,30.55
2017-07-06T06:40:07.461Z,30.51
2017-07-06T06:40:47.977Z,30.38
2017-07-06T06:41:28.527Z,30.35
2017-07-06T06:42:09.041Z,30.45
2017-07-06T06:42:49.567Z,30.57
2017-07-06T06:43:30.048Z,30.69
2017-07-06T06:44:10.514Z,30.67
2017-07-06T06:44:51.038Z,30.54
2017-07-06T06:45:31.557Z,30.6
2017-07-06T06:46:12.034Z,30.69
2017-07-06T06:46:52.542Z,30.7
2017-07-06T06:47:33.099Z,30.84
2017-07-06T06:48:13.581Z,30.82
2017-07-06T06:48:54.087Z,30.7
2017-07-06T06:49:34.645Z,30.73
2017-07-06T06:50:15.086Z,30.54
2017-07-06T06:50:55.574Z,30.61
2017-07-06T06:51:36.083Z,30.32
2017-07-06T06:52:16.616Z,30.32
2017-07-06T06:52:57.105Z,30.23
2017-07-06T06:53:37.628Z,30
2017-07-06T06:54:18.243Z,30.02
2017-07-06T06:54:58.779Z,30.26
2017-07-06T06:55:39.374Z,30.2
2017-07-06T06:56:19.822Z,30.29
2017-07-06T06:57:00.382Z,30.24
2017-07-06T06:57:41.149Z,30.19
2017-07-06T06:58:21.730Z,30
2017-07-06T06:59:02.268Z,30.04
2017-07-06T06:59:42.813Z,30.16
2017-07-06T07:00:23.348Z,30.19
2017-07-06T07:01:03.875Z,30.17
2017-07-06T07:01:44.336Z,30.23
2017-07-06T07:02:24.870Z,30.26
2017-07-06T07:03:05.387Z,30.15
2017-07-06T07:03:45.889Z,30.23
2017-07-06T07:04:26.377Z,30.24
2017-07-06T07:05:06.910Z,30.11
2017-07-06T07:05:47.400Z,30.22
2017-07-06T07:06:27.877Z,30.2
2017-07-06T07:07:08.385Z,30.2
2017-07-06T07:07:48.895Z,30.16
2017-07-06T07:08:29.423Z,30.23
2017-07-06T07:09:09.918Z,30.27
2017-07-06T07:09:50.464Z,30.27
2017-07-06T07:10:30.999Z,30.35
2017-07-06T07:11:11.469Z,30.46
2017-07-06T07:11:52.012Z,30.54
2017-07-06T07:12:32.487Z,30.53
2017-07-06T07:13:12.948Z,30.64
2017-07-06T07:13:53.460Z,30.67
2017-07-06T07:14:33.987Z,30.73
2017-07-06T07:15:14.458Z,30.76
2017-07-06T07:15:54.984Z,30.8
2017-07-06T07:16:35.475Z,30.73
2017-07-06T07:17:16.523Z,30.82
2017-07-06T07:17:57.039Z,30.77
2017-07-06T07:18:37.524Z,30.75
2017-07-06T07:19:18.053Z,30.86
2017-07-06T07:19:58.611Z,30.88
2017-07-06T07:20:39.061Z,30.67
2017-07-06T07:21:19.554Z,30.64
2017-07-06T07:22:00.059Z,30.67
2017-07-06T07:22:40.579Z,30.75
2017-07-06T07:23:21.102Z,30.82
2017-07-06T07:24:01.591Z,31.01
2017-07-06T07:24:42.135Z,31.04
2017-07-06T07:25:22.654Z,31.04
2017-07-06T07:26:03.216Z,31.1
2017-07-06T07:26:43.724Z,31.04
2017-07-06T07:27:24.232Z,31.02
2017-07-06T07:28:04.678Z,31.02
2017-07-06T07:28:45.188Z,30.77
2017-07-06T07:29:25.666Z,30.73
2017-07-06T07:30:06.193Z,30.84
2017-07-06T07:30:46.714Z,30.82
2017-07-06T07:31:27.173Z,30.75
2017-07-06T07:32:07.657Z,30.83
2017-07-06T07:32:48.203Z,30.98
2017-07-06T07:33:28.675Z,31.06
2017-07-06T07:34:09.228Z,31.04
2017-07-06T07:34:49.708Z,30.99
2017-07-06T07:35:30.216Z,31.04
2017-07-06T07:36:10.712Z,31.02
2017-07-06T07:36:51.265Z,31.1
2017-07-06T07:37:31.765Z,31.1
2017-07-06T07:38:12.261Z,31.06
2017-07-06T07:38:52.774Z,30.95
2017-07-06T07:39:33.326Z,30.94
2017-07-06T07:40:13.851Z,30.97
2017-07-06T07:40:54.343Z,31.04
2017-07-06T07:41:34.848Z,31.04
2017-07-06T07:42:15.332Z,31.01
2017-07-06T07:42:55.848Z,30.94
2017-07-06T07:43:36.310Z,30.72
2017-07-06T07:44:16.829Z,30.64
2017-07-06T07:44:57.350Z,30.46
2017-07-06T07:45:37.882Z,30.49
2017-07-06T07:46:18.343Z,30.53
2017-07-06T07:46:58.842Z,30.51
2017-07-06T07:47:39.440Z,30.37
2017-07-06T07:48:19.987Z,30.57
2017-07-06T07:49:00.607Z,30.64
2017-07-06T07:49:41.080Z,30.69
2017-07-06T07:50:21.579Z,30.73
2017-07-06T07:51:02.164Z,30.69
2017-07-06T07:51:42.652Z,30.62
2017-07-06T07:52:23.146Z,30.89
2017-07-06T07:53:03.645Z,30.73
2017-07-06T07:53:44.170Z,30.77
2017-07-06T07:54:24.694Z,30.91
2017-07-06T07:55:05.197Z,30.91
2017-07-06T07:55:45.758Z,30.98
2017-07-06T07:56:26.295Z,30.8
2017-07-06T07:57:06.811Z,30.88
2017-07-06T07:57:47.298Z,30.86
2017-07-06T07:58:27.810Z,30.97
2017-07-06T07:59:08.315Z,31.04
2017-07-06T07:59:48.793Z,31.12
2017-07-06T08:00:29.365Z,31.21
2017-07-06T08:01:09.816Z,31.2
2017-07-06T08:01:50.313Z,31.2
2017-07-06T08:02:30.808Z,31.28
2017-07-06T08:03:11.358Z,31.09
2017-07-06T08:03:51.918Z,31.25
2017-07-06T08:04:32.420Z,31.17
2017-07-06T08:05:12.918Z,31.14
2017-07-06T08:05:53.402Z,31.32
2017-07-06T08:06:33.918Z,31.23
2017-07-06T08:07:14.443Z,31.31
2017-07-06T08:07:54.906Z,31.19
2017-07-06T08:08:35.429Z,31.25
2017-07-06T08:09:15.946Z,31.29
2017-07-06T08:09:56.436Z,31.13
2017-07-06T08:10:36.943Z,31.19
2017-07-06T08:11:17.471Z,31.23
2017-07-06T08:11:57.961Z,31.28
2017-07-06T08:12:38.464Z,31.19
2017-07-06T08:13:19.006Z,31.17
2017-07-06T08:13:59.513Z,31.2
2017-07-06T08:14:40.036Z,31.16
2017-07-06T08:15:20.537Z,31.21
2017-07-06T08:16:01.024Z,31.09
2017-07-06T08:16:41.562Z,31.09
2017-07-06T08:17:22.035Z,31.06
2017-07-06T08:18:02.509Z,30.88
2017-07-06T08:18:43.051Z,30.86
2017-07-06T08:19:23.529Z,30.73
2017-07-06T08:20:03.995Z,30.61
2017-07-06T08:20:44.586Z,30.61
2017-07-06T08:21:25.058Z,30.6
2017-07-06T08:22:05.671Z,30.7
2017-07-06T08:22:46.147Z,30.65
2017-07-06T08:23:26.734Z,30.65
2017-07-06T08:24:07.259Z,30.67
2017-07-06T08:24:47.726Z,30.72
2017-07-06T08:25:28.260Z,30.8
2017-07-06T08:26:08.735Z,30.86
2017-07-06T08:26:49.258Z,30.97
2017-07-06T08:27:29.784Z,31.04
2017-07-06T08:28:10.327Z,31.07
2017-07-06T08:28:50.794Z,30.99
2017-07-06T08:29:31.448Z,31.12
2017-07-06T08:30:12.017Z,30.98
2017-07-06T08:30:52.547Z,30.82
2017-07-06T08:31:33.037Z,30.86
2017-07-06T08:32:13.524Z,30.7
2017-07-06T08:32:54.043Z,30.69
2017-07-06T08:33:34.577Z,30.54
2017-07-06T08:34:15.062Z,30.53
2017-07-06T08:34:55.546Z,30.6
2017-07-06T08:35:36.029Z,30.47
2017-07-06T08:36:16.576Z,30.31
2017-07-06T08:36:57.109Z,30.27
2017-07-06T08:37:37.570Z,30.23
2017-07-06T08:38:18.104Z,30.19
2017-07-06T08:38:58.590Z,30.29
2017-07-06T08:39:39.108Z,30.23
2017-07-06T08:40:19.584Z,30.26
2017-07-06T08:41:00.094Z,30.08
2017-07-06T08:41:40.600Z,29.8
2017-07-06T08:42:21.065Z,29.76
2017-07-06T08:43:01.611Z,29.64
2017-07-06T08:43:42.103Z,29.63
2017-07-06T08:44:22.616Z,29.71
2017-07-06T08:45:03.151Z,29.73
2017-07-06T08:45:43.663Z,29.86
2017-07-06T08:46:24.152Z,29.86